This is the latest recevied weather packets stored in our database for station/object GCEMA. If no packets are shown the sender has not sent any weather packets the latest 10 day(s).
| Time | Temp. | Humidity | Pressure | Rain* | Wind** | Luminosity | Snow |
|---|---|---|---|---|---|---|---|
| 1778056302 | 12.22° C | - | 1007.7 hPa | 0 mm | 0 m/s | - | - |
| 1778056124 | 12.22° C | - | 1007.5 hPa | 0 mm | 0 m/s | - | - |
| 1778055942 | 12.22° C | - | 1007.6 hPa | 0 mm | 0 m/s | - | - |
| 1778055762 | 11.67° C | - | 1007.7 hPa | 0 mm | 0 m/s | - | - |
| 1778055583 | 11.11° C | - | 1007.6 hPa | 0 mm | 0 m/s | - | - |
| 1778055220 | 10° C | - | 1007.8 hPa | 0 mm | 0 m/s | - | - |
| 1778055040 | 10.56° C | - | 1007.7 hPa | 0 mm | 0 m/s | - | - |
| 1778054861 | 11.11° C | - | 1007.6 hPa | 0 mm | 0 m/s | - | - |
| 1778054682 | 11.11° C | - | 1007.6 hPa | 0 mm | 0 m/s | - | - |
| 1778054321 | 10.56° C | - | 1007.8 hPa | 0 mm | 0 m/s | - | - |
| 1778054314 | 11.67° C | - | 1007.6 hPa | 0 mm | 0 m/s | - | - |
| 1778054140 | 11.67° C | - | 1007.6 hPa | 0 mm | 0 m/s | - | - |
| 1778053960 | 11.11° C | - | 1007.5 hPa | 0 mm | 0 m/s | - | - |
| 1778053782 | 10.56° C | - | 1007.7 hPa | 0 mm | 0 m/s | - | - |
| 1778053419 | 10.56° C | - | 1007.6 hPa | 0 mm | 0 m/s | - | - |
| 1778053239 | 10° C | - | 1007.4 hPa | 0 mm | 0 m/s | - | - |
| 1778052518 | 11.67° C | - | 1007.2 hPa | 0 mm | 0 m/s | - | - |
| 1778052337 | 11.11° C | - | 1007.2 hPa | 0 mm | 0 m/s | - | - |
| 1778052157 | 10.56° C | - | 1007.2 hPa | 0 mm | 0 m/s | - | - |
| 1778051796 | 11.67° C | - | 1007 hPa | 0 mm | 0 m/s | - | - |
| 1778051617 | 11.67° C | - | 1007.3 hPa | 0 mm | 0 m/s | - | - |
| 1778051436 | 11.11° C | - | 1007.6 hPa | 0 mm | 0 m/s | - | - |
| 1778051258 | 11.11° C | - | 1007.9 hPa | 0 mm | 0 m/s | - | - |
| 1778051078 | 11.67° C | - | 1007.7 hPa | 0 mm | 0 m/s | - | - |
| 1778050895 | 11.67° C | - | 1007.5 hPa | 0 mm | 0 m/s | - | - |
* Rain latest hour (hover to see other rain measurements)
** Current wind speed in m/s (hover to see current wind gust speed)